Hendricks, West Virginia
Current Conditions -  °F | °C
As of 9:51 AM on Thursday 30 Oct 2014 (Local Time) from KEKN Reporting Station
Overcast Overcast  
Wind Chill:   Ceiling: 3700
Heat Index:   Visibility: 10mi
Dew Point:   Wind: 6mph
Humidity: 79%   Direction: 290°WNW
Pressure: 30.11"   Gusts: NA
Location:  39.08°N, 79.63°W
Report Text: KEKN 301351Z AUTO 29005KT 10SM SCT019 OVC037 06/02 A3011 RMK AO2 SLP207 T00560022 TSNO
Loading
Personal Weather Stations






























Interactive Weather Map
Tropical Storm Tracking
New forecast layout! Learn more

10-Day Weather Forecast

Advertisements
Track Severe Weather on mobile